チンギスハーン国際空港の過去48時間の天気

チンギスハーン国際空港 (Ulan-Bator)

現在時刻: 2/6 04:04 +08 (2/5 20:04 UTC) 以下の時間は現地時間です。

過去48時間のMETAR気象情報
時間 風向 風速(m/s) 視程 気温(℃) 湿度(%) 気圧(hPa) 天気現象
6 03:00 不定 2 8000m -26 76 1018
6 02:00 不定 1 10km以上 -22 70 1018
6 01:00 不定 1 10km以上 -23 76 1018
6 00:00 不定 1 10km以上 -24 84 1018
5 23:00 不定 2 10km以上 -22 77 1018
5 22:00 不定 1 10km以上 -21 77 1017
5 21:00 不定 2 10km以上 -20 77 1017
5 20:00 静穏 0 10km以上 -14 72 1017
5 19:00 不定 1 8000m -14 72 1017
5 18:00 静穏 0 8000m -13 72 1016
5 17:00 不定 1 8000m -12 61 1016
5 16:00 不定 1 6000m -12 61 1016
5 15:00 静穏 0 6000m -12 56 1016
5 14:00 不定 1 6000m -14 60 1017
5 13:00 不定 1 6000m -15 55 1017
5 12:00 不定 1 6000m -18 65 1017
5 11:00 静穏 0 6000m -20 70 1018
5 10:00 静穏 0 6000m -23 76 1017
5 09:00 不定 1 6000m -28 69 1017
5 08:00 不定 1 6000m -28 75 1017
5 07:00 静穏 0 8000m -28 75 1017
5 06:00 不定 2 8000m -26 69 1016
5 05:00 不定 1 8000m -27 76 1016
5 04:00 不定 1 8000m -26 76 1016
5 03:00 不定 1 8000m -25 69 1016
5 02:00 不定 2 8000m -27 76 1016
5 01:00 静穏 0 8000m -22 77 1016
5 00:00 不定 2 8000m -25 69 1015
4 23:00 静穏 0 8000m -21 77 1015
4 22:00 不定 1 10km以上 -21 70 1014
4 21:00 不定 2 10km以上 -20 70 1014
4 20:00 不定 1 10km以上 -21 77 1014
4 19:00 不定 1 10km以上 -18 71 1013
4 18:00 不定 1 10km以上 -15 66 1012
4 17:00 不定 2 10km以上 -11 61 1012
4 16:00 不定 2 8000m -9 57 1011
4 15:00 静穏 0 6000m -9 52 1011
4 14:00 不定 1 6000m -12 61 1011
4 13:00 不定 1 5000m -16 78 1012
4 12:00 不定 1 5000m -18 77 1013
4 11:00 不定 1 5000m -21 77 1013
4 10:00 静穏 0 5000m -24 70 1013
4 09:00 不定 1 5000m -28 75 1013
4 08:00 不定 1 6000m -29 68 1013
4 07:00 静穏 0 6000m -28 69 1014
4 06:00 不定 1 6000m -28 69 1014
4 05:00 不定 1 6000m -28 75 1015
ZMUB 051900Z VRB02MPS 8000 NSC M26/M29 Q1018 NOSIG RMK QFE656.1 73 NT
ZMUB 051800Z VRB01MPS CAVOK M22/M26 Q1018 NOSIG RMK QFE656.1 74
ZMUB 051700Z VRB01MPS CAVOK M23/M26 Q1018 NOSIG RMK QFE656.0 75
ZMUB 051600Z VRB01MPS 9999 SCT100 M24/M26 Q1018 NOSIG RMK QFE655.9 75 NT
ZMUB 051500Z VRB02MPS 9999 SCT100 M22/M25 Q1018 NOSIG RMK QFE655.8 75 NT
ZMUB 051400Z VRB01MPS 9999 SCT100 M21/M24 Q1017 NOSIG RMK QFE655.7 75 NT
ZMUB 051300Z VRB02MPS 9999 SCT100 M20/M23 Q1017 NOSIG RMK QFE655.5 73 NT
ZMUB 051200Z 00000MPS 9999 SCT100 M14/M18 Q1017 NOSIG RMK QFE655.4 69 NT
ZMUB 051100Z VRB01MPS 8000 BKN100 M14/M18 Q1017 NOSIG RMK QFE655.3 69 NT
ZMUB 051000Z 00000MPS 8000 BKN100 M13/M17 Q1016 NOSIG RMK QFE655.1 69 NW MO
ZMUB 050900Z VRB01MPS 8000 BKN100 M12/M18 Q1016 NOSIG RMK QFE654.8 61 NW MO
ZMUB 050800Z VRB01MPS 6000 SCT100 M12/M18 Q1016 NOSIG RMK QFE654.7 59 NW MO
ZMUB 050700Z 00000MPS 6000 SCT100 M12/M19 Q1016 NOSIG RMK QFE654.8 54 NW MO
ZMUB 050600Z VRB01MPS 6000 SCT100 M14/M20 Q1017 NOSIG RMK QFE655.1 57 NW MO
ZMUB 050500Z VRB01MPS 6000 NSC M15/M22 Q1017 NOSIG RMK QFE655.4 56 NW MO
ZMUB 050400Z VRB01MPS 6000 NSC M18/M23 Q1017 NOSIG RMK QFE655.8 66 NW MO
ZMUB 050300Z 00000MPS 6000 NSC M20/M24 Q1018 NOSIG RMK QFE655.8 73 NW MO
ZMUB 050200Z 00000MPS 6000 NSC M23/M26 Q1017 NOSIG RMK QFE655.8 75 NW MO
ZMUB 050100Z VRB01MPS 6000 NSC M28/M32 Q1017 NOSIG RMK QFE655.7 69 NW MO
ZMUB 050000Z VRB01MPS 6000 NSC M28/M31 Q1017 NOSIG RMK QFE655.5 72 NW MO
ZMUB 042300Z 00000MPS 8000 NSC M28/M31 Q1017 NOSIG RMK QFE655.3 72 NT
ZMUB 042200Z VRB02MPS 8000 NSC M26/M30 Q1016 NOSIG RMK QFE654.9 72 NT
ZMUB 042100Z VRB01MPS 8000 NSC M27/M30 Q1016 NOSIG RMK QFE655.0 73 NT
ZMUB 042000Z VRB01MPS 8000 NSC M26/M29 Q1016 NOSIG RMK QFE655.0 75 NT
ZMUB 041900Z VRB01MPS 8000 NSC M25/M29 Q1016 NOSIG RMK QFE654.9 71 NT
ZMUB 041800Z VRB02MPS 8000 NSC M27/M30 Q1016 NOSIG RMK QFE654.8 73 NT
ZMUB 041700Z 00000MPS 8000 NSC M22/M25 Q1016 NOSIG RMK QFE654.6 71 NT
ZMUB 041600Z VRB02MPS 8000 NSC M25/M29 Q1015 NOSIG RMK QFE654.3 68 NT
ZMUB 041500Z 00000MPS 8000 NSC M21/M24 Q1015 NOSIG RMK QFE654.0 69 NT
ZMUB 041400Z VRB01MPS CAVOK M21/M25 Q1014 NOSIG RMK QFE653.8 66
ZMUB 041300Z VRB02MPS CAVOK M20/M24 Q1014 NOSIG RMK QFE653.5 71
ZMUB 041200Z VRB01MPS CAVOK M21/M24 Q1014 NOSIG RMK QFE653.3 69
ZMUB 041100Z VRB01MPS CAVOK M18/M22 Q1013 NOSIG RMK QFE653.0 66
ZMUB 041000Z VRB01MPS CAVOK M15/M20 Q1012 NOSIG RMK QFE652.5 64
ZMUB 040900Z VRB02MPS CAVOK M11/M17 Q1012 NOSIG RMK QFE652.1 58
ZMUB 040800Z VRB02MPS 8000 NSC M09/M16 Q1011 NOSIG RMK QFE651.8 54 NW MO
ZMUB 040700Z 00000MPS 6000 NSC M09/M17 Q1011 NOSIG RMK QFE651.8 50 NW MO
ZMUB 040600Z VRB01MPS 6000 NSC M12/M18 Q1011 NOSIG RMK QFE651.9 60 NW MO
ZMUB 040500Z VRB01MPS 5000 FU NSC M16/M19 Q1012 NOSIG RMK QFE652.4 71 NW MO
ZMUB 040400Z VRB01MPS 5000 FU NSC M18/M21 Q1013 NOSIG RMK QFE652.7 77 NW MO
ZMUB 040300Z VRB01MPS 5000 FU NSC M21/M24 Q1013 NOSIG RMK QFE653.1 75 NW MO
ZMUB 040200Z 00000MPS 5000 FU NSC M24/M28 Q1013 NOSIG RMK QFE653.2 73 NW MO
ZMUB 040100Z VRB01MPS 5000 FU NSC M28/M31 Q1013 NOSIG RMK QFE653.2 69 NW MO
ZMUB 040000Z VRB01MPS 6000 NSC M29/M33 Q1013 NOSIG RMK QFE653.1 69 NW MO
ZMUB 032300Z 00000MPS 6000 NSC M28/M32 Q1014 NOSIG RMK QFE653.5 69 NT
ZMUB 032200Z VRB01MPS 6000 NSC M28/M32 Q1014 NOSIG RMK QFE653.8 68 NT
ZMUB 032100Z VRB01MPS 6000 NSC M28/M31 Q1015 NOSIG RMK QFE654.2 70 NT